sensor_id;sensor_type;location;lat;lon;timestamp;temperature;humidity
27797;DHT22;15177;50.844;4.412;2022-09-29T00:00:33;11.30;99.90
27797;DHT22;15177;50.844;4.412;2022-09-29T00:03:00;11.30;99.90
27797;DHT22;15177;50.844;4.412;2022-09-29T00:05:26;11.30;99.90
27797;DHT22;15177;50.844;4.412;2022-09-29T00:07:52;11.20;99.90
27797;DHT22;15177;50.844;4.412;2022-09-29T00:10:18;11.20;99.90
27797;DHT22;15177;50.844;4.412;2022-09-29T00:12:44;11.10;99.90
27797;DHT22;15177;50.844;4.412;2022-09-29T00:15:10;11.10;99.90
27797;DHT22;15177;50.844;4.412;2022-09-29T00:17:36;11.10;99.90
27797;DHT22;15177;50.844;4.412;2022-09-29T00:20:02;11.00;99.90
27797;DHT22;15177;50.844;4.412;2022-09-29T00:22:27;11.10;99.90
27797;DHT22;15177;50.844;4.412;2022-09-29T00:24:53;11.10;99.90
27797;DHT22;15177;50.844;4.412;2022-09-29T00:27:19;11.20;99.90
27797;DHT22;15177;50.844;4.412;2022-09-29T00:29:45;11.20;99.90
27797;DHT22;15177;50.844;4.412;2022-09-29T00:32:11;11.20;99.90
27797;DHT22;15177;50.844;4.412;2022-09-29T00:34:37;11.20;99.90
27797;DHT22;15177;50.844;4.412;2022-09-29T00:37:03;11.20;99.90
27797;DHT22;15177;50.844;4.412;2022-09-29T00:39:29;11.10;99.90
27797;DHT22;15177;50.844;4.412;2022-09-29T00:41:54;11.00;99.90
27797;DHT22;15177;50.844;4.412;2022-09-29T00:46:56;11.00;99.90
27797;DHT22;15177;50.844;4.412;2022-09-29T00:49:46;11.10;99.90
27797;DHT22;15177;50.844;4.412;2022-09-29T00:55:08;11.00;99.90
27797;DHT22;15177;50.844;4.412;2022-09-29T00:58:04;11.00;99.90
27797;DHT22;15177;50.844;4.412;2022-09-29T01:00:32;11.00;99.90
27797;DHT22;15177;50.844;4.412;2022-09-29T01:03:04;11.00;99.90
27797;DHT22;15177;50.844;4.412;2022-09-29T01:05:35;10.90;99.90
27797;DHT22;15177;50.844;4.412;2022-09-29T01:08:12;10.90;99.90
27797;DHT22;15177;50.844;4.412;2022-09-29T01:10:40;10.80;99.90
27797;DHT22;15177;50.844;4.412;2022-09-29T01:13:07;10.80;99.90
27797;DHT22;15177;50.844;4.412;2022-09-29T01:15:33;10.70;99.90
27797;DHT22;15177;50.844;4.412;2022-09-29T01:17:59;10.70;99.90
27797;DHT22;15177;50.844;4.412;2022-09-29T01:20:26;10.70;99.90
27797;DHT22;15177;50.844;4.412;2022-09-29T01:26:39;10.70;99.90
27797;DHT22;15177;50.844;4.412;2022-09-29T01:38:26;10.70;99.90
27797;DHT22;15177;50.844;4.412;2022-09-29T01:41:34;10.80;99.90
27797;DHT22;15177;50.844;4.412;2022-09-29T01:44:28;10.70;99.90
27797;DHT22;15177;50.844;4.412;2022-09-29T01:47:02;10.60;99.90
27797;DHT22;15177;50.844;4.412;2022-09-29T01:49:33;10.60;99.90
27797;DHT22;15177;50.844;4.412;2022-09-29T01:52:13;10.70;99.90
27797;DHT22;15177;50.844;4.412;2022-09-29T01:55:08;10.70;99.90
27797;DHT22;15177;50.844;4.412;2022-09-29T01:57:57;10.70;99.90
27797;DHT22;15177;50.844;4.412;2022-09-29T02:00:25;10.60;99.90
27797;DHT22;15177;50.844;4.412;2022-09-29T02:03:34;10.50;99.90
27797;DHT22;15177;50.844;4.412;2022-09-29T02:06:06;10.50;99.90
27797;DHT22;15177;50.844;4.412;2022-09-29T02:11:07;10.50;99.90
27797;DHT22;15177;50.844;4.412;2022-09-29T02:13:49;10.50;99.90
27797;DHT22;15177;50.844;4.412;2022-09-29T02:16:20;10.40;99.90
27797;DHT22;15177;50.844;4.412;2022-09-29T02:18:53;10.40;99.90
27797;DHT22;15177;50.844;4.412;2022-09-29T02:21:20;10.40;99.90
27797;DHT22;15177;50.844;4.412;2022-09-29T02:23:47;10.50;99.90
27797;DHT22;15177;50.844;4.412;2022-09-29T02:26:13;10.70;99.90
27797;DHT22;15177;50.844;4.412;2022-09-29T02:28:39;10.70;99.90
27797;DHT22;15177;50.844;4.412;2022-09-29T02:31:06;10.70;99.90
27797;DHT22;15177;50.844;4.412;2022-09-29T02:33:32;10.60;99.90
27797;DHT22;15177;50.844;4.412;2022-09-29T02:36:24;10.60;99.90
27797;DHT22;15177;50.844;4.412;2022-09-29T02:38:58;10.50;99.90
27797;DHT22;15177;50.844;4.412;2022-09-29T02:41:33;10.40;99.90
27797;DHT22;15177;50.844;4.412;2022-09-29T02:49:53;10.40;99.90
27797;DHT22;15177;50.844;4.412;2022-09-29T02:52:43;10.40;99.90
27797;DHT22;15177;50.844;4.412;2022-09-29T02:58:17;10.30;99.90
27797;DHT22;15177;50.844;4.412;2022-09-29T03:00:45;10.30;99.90
27797;DHT22;15177;50.844;4.412;2022-09-29T03:03:11;10.40;99.90
27797;DHT22;15177;50.844;4.412;2022-09-29T03:05:37;10.30;99.90
27797;DHT22;15177;50.844;4.412;2022-09-29T03:08:03;10.30;99.90
27797;DHT22;15177;50.844;4.412;2022-09-29T03:10:30;10.20;99.90
27797;DHT22;15177;50.844;4.412;2022-09-29T03:12:55;10.30;99.90
27797;DHT22;15177;50.844;4.412;2022-09-29T03:15:21;10.30;99.90
27797;DHT22;15177;50.844;4.412;2022-09-29T03:17:47;10.30;99.90
27797;DHT22;15177;50.844;4.412;2022-09-29T03:20:12;10.20;99.90
27797;DHT22;15177;50.844;4.412;2022-09-29T03:22:38;10.30;99.90
27797;DHT22;15177;50.844;4.412;2022-09-29T03:25:04;10.20;99.90
27797;DHT22;15177;50.844;4.412;2022-09-29T03:27:32;10.20;99.90
27797;DHT22;15177;50.844;4.412;2022-09-29T03:29:57;10.20;99.90
27797;DHT22;15177;50.844;4.412;2022-09-29T03:32:23;10.20;99.90
27797;DHT22;15177;50.844;4.412;2022-09-29T03:34:49;10.20;99.90
27797;DHT22;15177;50.844;4.412;2022-09-29T03:37:16;10.20;99.90
27797;DHT22;15177;50.844;4.412;2022-09-29T03:39:41;10.10;99.90
27797;DHT22;15177;50.844;4.412;2022-09-29T03:42:07;10.10;99.90
27797;DHT22;15177;50.844;4.412;2022-09-29T03:44:33;10.20;99.90
27797;DHT22;15177;50.844;4.412;2022-09-29T03:46:59;10.10;99.90
27797;DHT22;15177;50.844;4.412;2022-09-29T03:49:25;10.10;99.90
27797;DHT22;15177;50.844;4.412;2022-09-29T03:51:50;10.20;99.90
27797;DHT22;15177;50.844;4.412;2022-09-29T03:54:17;10.20;99.90
27797;DHT22;15177;50.844;4.412;2022-09-29T03:56:42;10.20;99.90
27797;DHT22;15177;50.844;4.412;2022-09-29T03:59:08;10.30;99.90
27797;DHT22;15177;50.844;4.412;2022-09-29T04:01:36;10.30;99.90
27797;DHT22;15177;50.844;4.412;2022-09-29T04:04:03;10.30;99.90
27797;DHT22;15177;50.844;4.412;2022-09-29T04:06:30;10.40;99.90
27797;DHT22;15177;50.844;4.412;2022-09-29T04:08:56;10.30;99.90
27797;DHT22;15177;50.844;4.412;2022-09-29T04:11:22;10.50;99.90
27797;DHT22;15177;50.844;4.412;2022-09-29T04:13:47;10.40;99.90
27797;DHT22;15177;50.844;4.412;2022-09-29T04:16:13;10.30;99.90
27797;DHT22;15177;50.844;4.412;2022-09-29T04:18:39;10.40;99.90
27797;DHT22;15177;50.844;4.412;2022-09-29T04:21:08;10.30;99.90
27797;DHT22;15177;50.844;4.412;2022-09-29T04:23:34;10.40;99.90
27797;DHT22;15177;50.844;4.412;2022-09-29T04:26:01;10.20;99.90
27797;DHT22;15177;50.844;4.412;2022-09-29T04:28:27;10.30;99.90
27797;DHT22;15177;50.844;4.412;2022-09-29T04:30:53;10.20;99.90
27797;DHT22;15177;50.844;4.412;2022-09-29T04:33:18;10.20;99.90
27797;DHT22;15177;50.844;4.412;2022-09-29T04:35:44;10.20;99.90
27797;DHT22;15177;50.844;4.412;2022-09-29T04:38:11;10.20;99.90
27797;DHT22;15177;50.844;4.412;2022-09-29T04:40:37;10.20;99.90
27797;DHT22;15177;50.844;4.412;2022-09-29T04:43:03;10.10;99.90
27797;DHT22;15177;50.844;4.412;2022-09-29T04:45:30;10.00;99.90
27797;DHT22;15177;50.844;4.412;2022-09-29T04:47:57;10.10;99.90
27797;DHT22;15177;50.844;4.412;2022-09-29T04:50:23;10.10;99.90
27797;DHT22;15177;50.844;4.412;2022-09-29T04:52:49;10.20;99.90
27797;DHT22;15177;50.844;4.412;2022-09-29T04:55:15;10.20;99.90
27797;DHT22;15177;50.844;4.412;2022-09-29T04:57:41;10.30;99.90
27797;DHT22;15177;50.844;4.412;2022-09-29T05:00:09;10.30;99.90
27797;DHT22;15177;50.844;4.412;2022-09-29T05:02:35;10.20;99.90
27797;DHT22;15177;50.844;4.412;2022-09-29T05:05:01;10.20;99.90
27797;DHT22;15177;50.844;4.412;2022-09-29T05:07:27;10.20;99.90
27797;DHT22;15177;50.844;4.412;2022-09-29T05:09:53;10.30;99.90
27797;DHT22;15177;50.844;4.412;2022-09-29T05:12:19;10.20;99.90
27797;DHT22;15177;50.844;4.412;2022-09-29T05:14:45;10.20;99.90
27797;DHT22;15177;50.844;4.412;2022-09-29T05:17:11;10.10;99.90
27797;DHT22;15177;50.844;4.412;2022-09-29T05:19:37;10.10;99.90
27797;DHT22;15177;50.844;4.412;2022-09-29T05:22:02;10.10;99.90
27797;DHT22;15177;50.844;4.412;2022-09-29T05:24:28;10.00;99.90
27797;DHT22;15177;50.844;4.412;2022-09-29T05:26:54;10.00;99.90
27797;DHT22;15177;50.844;4.412;2022-09-29T05:29:20;10.00;99.90
27797;DHT22;15177;50.844;4.412;2022-09-29T05:31:46;10.00;99.90
27797;DHT22;15177;50.844;4.412;2022-09-29T05:34:12;10.00;99.90
27797;DHT22;15177;50.844;4.412;2022-09-29T05:36:37;9.90;99.90
27797;DHT22;15177;50.844;4.412;2022-09-29T05:39:03;9.90;99.90
27797;DHT22;15177;50.844;4.412;2022-09-29T05:41:29;9.90;99.90
27797;DHT22;15177;50.844;4.412;2022-09-29T05:43:55;9.90;99.90
27797;DHT22;15177;50.844;4.412;2022-09-29T05:46:21;10.00;99.90
27797;DHT22;15177;50.844;4.412;2022-09-29T05:48:48;10.00;99.90
27797;DHT22;15177;50.844;4.412;2022-09-29T05:51:18;10.10;99.90
27797;DHT22;15177;50.844;4.412;2022-09-29T05:53:46;10.10;99.90
27797;DHT22;15177;50.844;4.412;2022-09-29T05:56:22;10.10;99.90
27797;DHT22;15177;50.844;4.412;2022-09-29T05:58:48;10.10;99.90
27797;DHT22;15177;50.844;4.412;2022-09-29T06:01:19;10.10;99.90
27797;DHT22;15177;50.844;4.412;2022-09-29T06:03:45;10.10;99.90
27797;DHT22;15177;50.844;4.412;2022-09-29T06:06:13;10.10;99.90
27797;DHT22;15177;50.844;4.412;2022-09-29T06:08:41;10.10;99.90
27797;DHT22;15177;50.844;4.412;2022-09-29T06:11:12;10.20;99.90
27797;DHT22;15177;50.844;4.412;2022-09-29T06:13:39;10.30;99.90
27797;DHT22;15177;50.844;4.412;2022-09-29T06:16:06;10.40;99.90
27797;DHT22;15177;50.844;4.412;2022-09-29T06:18:32;10.40;99.90
27797;DHT22;15177;50.844;4.412;2022-09-29T06:21:09;10.40;99.90
27797;DHT22;15177;50.844;4.412;2022-09-29T06:23:35;10.50;99.90
27797;DHT22;15177;50.844;4.412;2022-09-29T06:26:05;10.70;99.90
27797;DHT22;15177;50.844;4.412;2022-09-29T06:28:33;10.80;99.90
27797;DHT22;15177;50.844;4.412;2022-09-29T06:31:12;11.00;99.90
27797;DHT22;15177;50.844;4.412;2022-09-29T06:33:38;11.10;99.90
27797;DHT22;15177;50.844;4.412;2022-09-29T06:36:10;11.10;99.90
27797;DHT22;15177;50.844;4.412;2022-09-29T06:38:59;11.30;99.90
27797;DHT22;15177;50.844;4.412;2022-09-29T06:41:26;11.30;99.90
27797;DHT22;15177;50.844;4.412;2022-09-29T06:43:53;11.40;99.90
27797;DHT22;15177;50.844;4.412;2022-09-29T06:46:18;11.80;99.90
27797;DHT22;15177;50.844;4.412;2022-09-29T06:48:44;12.70;99.90
27797;DHT22;15177;50.844;4.412;2022-09-29T06:51:10;14.00;99.90
27797;DHT22;15177;50.844;4.412;2022-09-29T06:53:36;14.80;99.90
27797;DHT22;15177;50.844;4.412;2022-09-29T06:56:02;15.10;99.90
27797;DHT22;15177;50.844;4.412;2022-09-29T06:58:28;15.10;99.90
27797;DHT22;15177;50.844;4.412;2022-09-29T07:00:54;15.00;99.90
27797;DHT22;15177;50.844;4.412;2022-09-29T07:03:20;14.90;99.90
27797;DHT22;15177;50.844;4.412;2022-09-29T07:05:46;14.80;99.90
27797;DHT22;15177;50.844;4.412;2022-09-29T07:08:12;15.10;99.90
27797;DHT22;15177;50.844;4.412;2022-09-29T07:10:38;16.30;99.90
27797;DHT22;15177;50.844;4.412;2022-09-29T07:13:04;17.90;99.90
27797;DHT22;15177;50.844;4.412;2022-09-29T07:15:31;19.40;99.90
27797;DHT22;15177;50.844;4.412;2022-09-29T07:17:57;20.80;97.40
27797;DHT22;15177;50.844;4.412;2022-09-29T07:20:25;21.60;93.20
27797;DHT22;15177;50.844;4.412;2022-09-29T07:22:51;22.60;90.90
27797;DHT22;15177;50.844;4.412;2022-09-29T07:25:17;23.10;86.30
27797;DHT22;15177;50.844;4.412;2022-09-29T07:27:43;23.00;83.00
27797;DHT22;15177;50.844;4.412;2022-09-29T07:30:09;22.90;83.50
27797;DHT22;15177;50.844;4.412;2022-09-29T07:32:35;22.90;82.00
27797;DHT22;15177;50.844;4.412;2022-09-29T07:35:03;22.80;82.90
27797;DHT22;15177;50.844;4.412;2022-09-29T07:37:29;23.10;81.20
27797;DHT22;15177;50.844;4.412;2022-09-29T07:39:55;23.30;79.00
27797;DHT22;15177;50.844;4.412;2022-09-29T07:42:21;23.40;77.60
27797;DHT22;15177;50.844;4.412;2022-09-29T07:44:47;23.20;77.80
27797;DHT22;15177;50.844;4.412;2022-09-29T07:47:13;23.00;78.20
27797;DHT22;15177;50.844;4.412;2022-09-29T07:49:39;22.70;79.00
27797;DHT22;15177;50.844;4.412;2022-09-29T07:52:05;22.60;79.60
27797;DHT22;15177;50.844;4.412;2022-09-29T07:54:31;22.40;80.10
27797;DHT22;15177;50.844;4.412;2022-09-29T07:56:57;22.30;80.20
27797;DHT22;15177;50.844;4.412;2022-09-29T07:59:26;22.40;81.20
27797;DHT22;15177;50.844;4.412;2022-09-29T08:01:52;22.50;80.70
27797;DHT22;15177;50.844;4.412;2022-09-29T08:04:18;22.90;79.70
27797;DHT22;15177;50.844;4.412;2022-09-29T08:06:44;23.20;77.60
27797;DHT22;15177;50.844;4.412;2022-09-29T08:09:11;23.40;75.90
27797;DHT22;15177;50.844;4.412;2022-09-29T08:11:38;23.40;76.60
27797;DHT22;15177;50.844;4.412;2022-09-29T08:14:05;23.50;75.00
27797;DHT22;15177;50.844;4.412;2022-09-29T08:16:31;23.20;75.70
27797;DHT22;15177;50.844;4.412;2022-09-29T08:19:01;22.90;77.70
27797;DHT22;15177;50.844;4.412;2022-09-29T08:21:28;22.80;79.50
27797;DHT22;15177;50.844;4.412;2022-09-29T08:23:54;23.00;78.00
27797;DHT22;15177;50.844;4.412;2022-09-29T08:26:21;23.10;77.20
27797;DHT22;15177;50.844;4.412;2022-09-29T08:28:47;23.20;77.40
27797;DHT22;15177;50.844;4.412;2022-09-29T08:31:15;23.30;77.10
27797;DHT22;15177;50.844;4.412;2022-09-29T08:33:46;23.60;76.20
27797;DHT22;15177;50.844;4.412;2022-09-29T08:36:13;24.00;75.00
27797;DHT22;15177;50.844;4.412;2022-09-29T08:38:49;24.40;73.20
27797;DHT22;15177;50.844;4.412;2022-09-29T08:44:14;25.30;69.80
27797;DHT22;15177;50.844;4.412;2022-09-29T08:46:52;25.60;69.00
27797;DHT22;15177;50.844;4.412;2022-09-29T08:49:31;25.80;67.60
27797;DHT22;15177;50.844;4.412;2022-09-29T08:52:12;26.10;66.20
27797;DHT22;15177;50.844;4.412;2022-09-29T08:54:42;26.30;65.40
27797;DHT22;15177;50.844;4.412;2022-09-29T08:57:13;26.40;65.20
27797;DHT22;15177;50.844;4.412;2022-09-29T08:59:56;26.30;64.50
27797;DHT22;15177;50.844;4.412;2022-09-29T09:11:38;28.10;59.60
27797;DHT22;15177;50.844;4.412;2022-09-29T09:17:42;27.80;59.40
27797;DHT22;15177;50.844;4.412;2022-09-29T09:27:43;26.70;61.00
27797;DHT22;15177;50.844;4.412;2022-09-29T09:30:18;26.60;61.50
27797;DHT22;15177;50.844;4.412;2022-09-29T09:32:54;26.60;60.70
27797;DHT22;15177;50.844;4.412;2022-09-29T09:35:28;26.70;61.10
27797;DHT22;15177;50.844;4.412;2022-09-29T09:38:03;26.80;61.40
27797;DHT22;15177;50.844;4.412;2022-09-29T09:40:39;26.70;60.80
27797;DHT22;15177;50.844;4.412;2022-09-29T09:43:19;26.90;59.70
27797;DHT22;15177;50.844;4.412;2022-09-29T09:45:49;26.80;59.40
27797;DHT22;15177;50.844;4.412;2022-09-29T09:48:41;26.90;59.70
27797;DHT22;15177;50.844;4.412;2022-09-29T09:52:26;27.40;58.90
27797;DHT22;15177;50.844;4.412;2022-09-29T09:54:33;27.60;59.00
27797;DHT22;15177;50.844;4.412;2022-09-29T10:02:48;27.50;57.80
27797;DHT22;15177;50.844;4.412;2022-09-29T10:05:18;27.50;57.90
27797;DHT22;15177;50.844;4.412;2022-09-29T10:07:45;27.50;58.50
27797;DHT22;15177;50.844;4.412;2022-09-29T10:10:22;26.50;59.80
27797;DHT22;15177;50.844;4.412;2022-09-29T10:13:10;26.70;59.30
27797;DHT22;15177;50.844;4.412;2022-09-29T10:18:22;26.90;59.10
27797;DHT22;15177;50.844;4.412;2022-09-29T10:20:49;27.00;58.90
27797;DHT22;15177;50.844;4.412;2022-09-29T10:23:34;27.10;57.80
27797;DHT22;15177;50.844;4.412;2022-09-29T10:26:06;27.20;58.30
27797;DHT22;15177;50.844;4.412;2022-09-29T10:28:56;27.20;58.30
27797;DHT22;15177;50.844;4.412;2022-09-29T10:31:33;26.90;57.80
27797;DHT22;15177;50.844;4.412;2022-09-29T10:42:22;26.80;58.50
27797;DHT22;15177;50.844;4.412;2022-09-29T10:47:38;26.70;58.80
27797;DHT22;15177;50.844;4.412;2022-09-29T10:50:14;26.60;58.00
27797;DHT22;15177;50.844;4.412;2022-09-29T10:55:17;25.50;60.30
27797;DHT22;15177;50.844;4.412;2022-09-29T10:57:44;24.40;61.50
27797;DHT22;15177;50.844;4.412;2022-09-29T11:00:38;23.60;63.60
27797;DHT22;15177;50.844;4.412;2022-09-29T11:03:20;23.30;66.70
27797;DHT22;15177;50.844;4.412;2022-09-29T11:06:07;23.00;66.40
27797;DHT22;15177;50.844;4.412;2022-09-29T11:08:54;22.10;67.60
27797;DHT22;15177;50.844;4.412;2022-09-29T11:11:26;21.40;70.90
27797;DHT22;15177;50.844;4.412;2022-09-29T11:13:53;21.10;72.30
27797;DHT22;15177;50.844;4.412;2022-09-29T11:16:34;21.00;71.80
27797;DHT22;15177;50.844;4.412;2022-09-29T11:19:07;20.90;72.40
27797;DHT22;15177;50.844;4.412;2022-09-29T11:28:04;20.80;74.60
27797;DHT22;15177;50.844;4.412;2022-09-29T11:39:15;19.10;79.70
27797;DHT22;15177;50.844;4.412;2022-09-29T11:44:58;19.30;80.10
27797;DHT22;15177;50.844;4.412;2022-09-29T12:04:40;20.00;78.20
27797;DHT22;15177;50.844;4.412;2022-09-29T12:13:16;19.80;77.10
27797;DHT22;15177;50.844;4.412;2022-09-29T12:21:01;19.60;80.10
27797;DHT22;15177;50.844;4.412;2022-09-29T12:23:29;19.60;79.40
27797;DHT22;15177;50.844;4.412;2022-09-29T12:26:18;19.40;80.40
27797;DHT22;15177;50.844;4.412;2022-09-29T12:28:53;19.10;82.60
27797;DHT22;15177;50.844;4.412;2022-09-29T12:31:42;19.10;83.00
27797;DHT22;15177;50.844;4.412;2022-09-29T12:34:37;18.90;83.90
27797;DHT22;15177;50.844;4.412;2022-09-29T12:37:24;19.00;84.80
27797;DHT22;15177;50.844;4.412;2022-09-29T12:49:01;18.70;86.00
27797;DHT22;15177;50.844;4.412;2022-09-29T12:51:33;18.60;87.60
27797;DHT22;15177;50.844;4.412;2022-09-29T12:54:27;18.50;89.00
27797;DHT22;15177;50.844;4.412;2022-09-29T12:57:03;18.40;90.30
27797;DHT22;15177;50.844;4.412;2022-09-29T12:59:36;18.50;90.40
27797;DHT22;15177;50.844;4.412;2022-09-29T13:27:31;18.40;93.10
27797;DHT22;15177;50.844;4.412;2022-09-29T13:32:28;18.70;92.90
27797;DHT22;15177;50.844;4.412;2022-09-29T13:34:56;18.80;92.20
27797;DHT22;15177;50.844;4.412;2022-09-29T13:37:24;18.80;92.20
27797;DHT22;15177;50.844;4.412;2022-09-29T13:40:02;18.80;92.20
27797;DHT22;15177;50.844;4.412;2022-09-29T13:42:42;18.80;92.00
27797;DHT22;15177;50.844;4.412;2022-09-29T13:47:46;18.90;92.00
27797;DHT22;15177;50.844;4.412;2022-09-29T13:55:50;18.80;91.40
27797;DHT22;15177;50.844;4.412;2022-09-29T13:58:37;18.80;90.30
27797;DHT22;15177;50.844;4.412;2022-09-29T14:01:05;18.90;90.70
27797;DHT22;15177;50.844;4.412;2022-09-29T14:03:36;19.00;90.60
27797;DHT22;15177;50.844;4.412;2022-09-29T14:11:36;19.00;90.20
27797;DHT22;15177;50.844;4.412;2022-09-29T14:14:16;19.00;90.20
27797;DHT22;15177;50.844;4.412;2022-09-29T14:19:47;18.90;90.40
27797;DHT22;15177;50.844;4.412;2022-09-29T14:28:00;18.90;90.60
27797;DHT22;15177;50.844;4.412;2022-09-29T14:33:08;18.70;91.70
27797;DHT22;15177;50.844;4.412;2022-09-29T14:35:40;18.50;93.00
27797;DHT22;15177;50.844;4.412;2022-09-29T14:40:38;18.50;92.80
27797;DHT22;15177;50.844;4.412;2022-09-29T14:43:15;18.50;92.70
27797;DHT22;15177;50.844;4.412;2022-09-29T14:45:59;18.50;92.90
27797;DHT22;15177;50.844;4.412;2022-09-29T14:55:17;18.40;93.90
27797;DHT22;15177;50.844;4.412;2022-09-29T14:58:01;18.40;94.10
27797;DHT22;15177;50.844;4.412;2022-09-29T15:03:21;17.90;95.60
27797;DHT22;15177;50.844;4.412;2022-09-29T15:06:10;17.80;95.70
27797;DHT22;15177;50.844;4.412;2022-09-29T15:08:36;17.40;97.00
27797;DHT22;15177;50.844;4.412;2022-09-29T15:11:23;17.40;97.60
27797;DHT22;15177;50.844;4.412;2022-09-29T15:13:51;17.80;97.30
27797;DHT22;15177;50.844;4.412;2022-09-29T15:16:46;17.70;97.10
27797;DHT22;15177;50.844;4.412;2022-09-29T15:25:02;18.00;96.50
27797;DHT22;15177;50.844;4.412;2022-09-29T15:27:32;17.70;96.80
27797;DHT22;15177;50.844;4.412;2022-09-29T15:29:58;17.40;98.60
27797;DHT22;15177;50.844;4.412;2022-09-29T15:32:30;17.80;98.20
27797;DHT22;15177;50.844;4.412;2022-09-29T15:35:02;17.80;99.50
27797;DHT22;15177;50.844;4.412;2022-09-29T15:38:43;17.60;99.90
27797;DHT22;15177;50.844;4.412;2022-09-29T15:40:53;17.50;99.90
27797;DHT22;15177;50.844;4.412;2022-09-29T15:43:21;17.30;99.90
27797;DHT22;15177;50.844;4.412;2022-09-29T15:46:15;17.40;99.90
27797;DHT22;15177;50.844;4.412;2022-09-29T15:51:31;17.20;99.90
27797;DHT22;15177;50.844;4.412;2022-09-29T15:53:56;17.10;99.90
27797;DHT22;15177;50.844;4.412;2022-09-29T15:56:25;17.10;99.90
27797;DHT22;15177;50.844;4.412;2022-09-29T15:58:51;17.20;99.90
27797;DHT22;15177;50.844;4.412;2022-09-29T16:01:18;17.20;99.90
27797;DHT22;15177;50.844;4.412;2022-09-29T16:03:48;17.20;99.90
27797;DHT22;15177;50.844;4.412;2022-09-29T16:06:35;17.20;99.90
27797;DHT22;15177;50.844;4.412;2022-09-29T16:09:04;17.00;99.90
27797;DHT22;15177;50.844;4.412;2022-09-29T16:11:33;16.90;99.90
27797;DHT22;15177;50.844;4.412;2022-09-29T16:14:01;16.80;99.90
27797;DHT22;15177;50.844;4.412;2022-09-29T16:16:36;16.70;99.90
27797;DHT22;15177;50.844;4.412;2022-09-29T16:19:21;16.70;99.90
27797;DHT22;15177;50.844;4.412;2022-09-29T16:22:18;16.70;99.90
27797;DHT22;15177;50.844;4.412;2022-09-29T16:28:01;16.50;99.90
27797;DHT22;15177;50.844;4.412;2022-09-29T16:30:35;16.50;99.90
27797;DHT22;15177;50.844;4.412;2022-09-29T16:33:21;16.50;99.90
27797;DHT22;15177;50.844;4.412;2022-09-29T16:38:27;16.50;99.90
27797;DHT22;15177;50.844;4.412;2022-09-29T16:41:13;16.50;99.90
27797;DHT22;15177;50.844;4.412;2022-09-29T16:43:40;16.40;99.90
27797;DHT22;15177;50.844;4.412;2022-09-29T16:46:19;16.40;99.90
27797;DHT22;15177;50.844;4.412;2022-09-29T16:48:46;16.50;99.90
27797;DHT22;15177;50.844;4.412;2022-09-29T16:51:18;16.20;99.90
27797;DHT22;15177;50.844;4.412;2022-09-29T16:53:45;16.10;99.90
27797;DHT22;15177;50.844;4.412;2022-09-29T16:56:29;16.10;99.90
27797;DHT22;15177;50.844;4.412;2022-09-29T17:01:36;15.90;99.90
27797;DHT22;15177;50.844;4.412;2022-09-29T17:04:01;15.90;99.90
27797;DHT22;15177;50.844;4.412;2022-09-29T17:06:30;15.90;99.90
27797;DHT22;15177;50.844;4.412;2022-09-29T17:08:57;15.70;99.90
27797;DHT22;15177;50.844;4.412;2022-09-29T17:11:23;15.70;99.90
27797;DHT22;15177;50.844;4.412;2022-09-29T17:13:49;15.70;99.90
27797;DHT22;15177;50.844;4.412;2022-09-29T17:16:15;15.70;99.90
27797;DHT22;15177;50.844;4.412;2022-09-29T17:18:49;15.60;99.90
27797;DHT22;15177;50.844;4.412;2022-09-29T17:21:15;15.60;99.90
27797;DHT22;15177;50.844;4.412;2022-09-29T17:23:41;15.40;99.90
27797;DHT22;15177;50.844;4.412;2022-09-29T17:26:21;15.40;99.90
27797;DHT22;15177;50.844;4.412;2022-09-29T17:29:06;15.30;99.90
27797;DHT22;15177;50.844;4.412;2022-09-29T17:31:31;15.40;99.90
27797;DHT22;15177;50.844;4.412;2022-09-29T17:33:57;15.40;99.90
27797;DHT22;15177;50.844;4.412;2022-09-29T17:36:23;15.30;99.90
27797;DHT22;15177;50.844;4.412;2022-09-29T17:38:49;15.30;99.90
27797;DHT22;15177;50.844;4.412;2022-09-29T17:41:16;15.50;99.90
27797;DHT22;15177;50.844;4.412;2022-09-29T17:43:43;15.50;99.90
27797;DHT22;15177;50.844;4.412;2022-09-29T17:46:13;15.50;99.90
27797;DHT22;15177;50.844;4.412;2022-09-29T17:48:39;15.50;99.90
27797;DHT22;15177;50.844;4.412;2022-09-29T17:51:09;15.30;99.90
27797;DHT22;15177;50.844;4.412;2022-09-29T17:53:36;15.20;99.90
27797;DHT22;15177;50.844;4.412;2022-09-29T17:56:02;15.20;99.90
27797;DHT22;15177;50.844;4.412;2022-09-29T17:58:29;15.30;99.90
27797;DHT22;15177;50.844;4.412;2022-09-29T18:00:55;15.20;99.90
27797;DHT22;15177;50.844;4.412;2022-09-29T18:03:22;15.10;99.90
27797;DHT22;15177;50.844;4.412;2022-09-29T18:05:53;15.10;99.90
27797;DHT22;15177;50.844;4.412;2022-09-29T18:08:25;15.10;99.90
27797;DHT22;15177;50.844;4.412;2022-09-29T18:10:58;15.10;99.90
27797;DHT22;15177;50.844;4.412;2022-09-29T18:13:25;15.00;99.90
27797;DHT22;15177;50.844;4.412;2022-09-29T18:15:52;15.00;99.90
27797;DHT22;15177;50.844;4.412;2022-09-29T18:18:20;15.10;99.90
27797;DHT22;15177;50.844;4.412;2022-09-29T18:20:46;15.10;99.90
27797;DHT22;15177;50.844;4.412;2022-09-29T18:23:14;14.80;99.90
27797;DHT22;15177;50.844;4.412;2022-09-29T18:25:42;14.90;99.90
27797;DHT22;15177;50.844;4.412;2022-09-29T18:28:13;15.00;99.90
27797;DHT22;15177;50.844;4.412;2022-09-29T18:30:43;15.10;99.90
27797;DHT22;15177;50.844;4.412;2022-09-29T18:33:14;15.10;99.90
27797;DHT22;15177;50.844;4.412;2022-09-29T18:35:42;15.00;99.90
27797;DHT22;15177;50.844;4.412;2022-09-29T18:38:08;15.00;99.90
27797;DHT22;15177;50.844;4.412;2022-09-29T18:40:34;14.90;99.90
27797;DHT22;15177;50.844;4.412;2022-09-29T18:43:00;14.90;99.90
27797;DHT22;15177;50.844;4.412;2022-09-29T18:45:28;15.00;99.90
27797;DHT22;15177;50.844;4.412;2022-09-29T18:47:56;15.00;99.90
27797;DHT22;15177;50.844;4.412;2022-09-29T18:50:36;14.90;99.90
27797;DHT22;15177;50.844;4.412;2022-09-29T18:53:03;15.00;99.90
27797;DHT22;15177;50.844;4.412;2022-09-29T18:55:30;15.10;99.90
27797;DHT22;15177;50.844;4.412;2022-09-29T18:57:57;15.00;99.90
27797;DHT22;15177;50.844;4.412;2022-09-29T19:00:34;15.20;99.90
27797;DHT22;15177;50.844;4.412;2022-09-29T19:03:04;15.40;99.90
27797;DHT22;15177;50.844;4.412;2022-09-29T19:05:31;15.10;99.90
27797;DHT22;15177;50.844;4.412;2022-09-29T19:08:02;15.10;99.90
27797;DHT22;15177;50.844;4.412;2022-09-29T19:10:30;15.00;99.90
27797;DHT22;15177;50.844;4.412;2022-09-29T19:13:06;14.90;99.90
27797;DHT22;15177;50.844;4.412;2022-09-29T19:15:36;15.00;99.90
27797;DHT22;15177;50.844;4.412;2022-09-29T19:18:03;15.10;99.90
27797;DHT22;15177;50.844;4.412;2022-09-29T19:20:30;15.00;99.90
27797;DHT22;15177;50.844;4.412;2022-09-29T19:22:57;15.10;99.90
27797;DHT22;15177;50.844;4.412;2022-09-29T19:25:29;15.00;99.90